Time;durP1;ratioP1;P1;durP2;ratioP2;P2;SDS_P1;SDS_P2;PMS_P1;PMS_P2;Temp;Humidity;BMP_temperature;BMP_pressure;BME280_temperature;BME280_humidity;BME280_pressure;Samples;Min_cycle;Max_cycle;Signal;HPM_P1;HPM_P2
2021/04/29 00:01:27;;;;;;;14.33;8.27;;;10.20;99.90;;;;;;5043252;28;20213;-78
2021/04/29 00:03:54;;;;;;;14.40;7.97;;;10.20;99.90;;;;;;5042723;28;20217;-75
2021/04/29 00:06:21;;;;;;;10.90;8.47;;;10.30;99.90;;;;;;5043070;28;20522;-79
2021/04/29 00:08:47;;;;;;;12.93;9.73;;;10.30;99.90;;;;;;5043606;28;20700;-76
2021/04/29 00:11:14;;;;;;;12.63;7.87;;;10.30;99.90;;;;;;5042575;28;20264;-77
2021/04/29 00:13:40;;;;;;;13.67;9.13;;;10.30;99.90;;;;;;5043520;28;20205;-79
2021/04/29 00:16:06;;;;;;;17.10;8.40;;;10.20;99.90;;;;;;5043284;28;20224;-78
2021/04/29 00:18:33;;;;;;;13.20;8.13;;;10.30;99.90;;;;;;5043062;28;20228;-79
2021/04/29 00:21:01;;;;;;;14.20;8.30;;;10.20;99.90;;;;;;5043515;28;20222;-78
2021/04/29 00:23:29;;;;;;;15.93;10.00;;;10.20;99.90;;;;;;5042097;28;20202;-78
2021/04/29 00:25:56;;;;;;;13.70;8.37;;;10.20;99.90;;;;;;5042105;28;20236;-80
2021/04/29 00:28:23;;;;;;;16.17;8.90;;;10.20;99.90;;;;;;5041467;28;20237;-79
2021/04/29 00:30:50;;;;;;;12.37;7.93;;;10.20;99.90;;;;;;5041609;28;20198;-78
2021/04/29 00:33:16;;;;;;;11.67;7.80;;;10.20;99.90;;;;;;5042871;28;20629;-78
2021/04/29 00:35:43;;;;;;;12.30;8.43;;;10.20;99.90;;;;;;5042401;28;20221;-79
2021/04/29 00:38:10;;;;;;;12.03;8.00;;;10.20;99.90;;;;;;5041498;28;20719;-78
2021/04/29 00:40:38;;;;;;;10.27;7.83;;;10.20;99.90;;;;;;5041808;28;20237;-78
2021/04/29 00:43:04;;;;;;;13.10;8.47;;;10.20;99.90;;;;;;5042583;28;20954;-79
2021/04/29 00:45:30;;;;;;;12.03;9.13;;;10.20;99.90;;;;;;5041701;28;20198;-78
2021/04/29 00:47:56;;;;;;;12.67;8.30;;;10.20;99.90;;;;;;5041292;28;20266;-78
2021/04/29 00:50:25;;;;;;;10.83;8.13;;;10.20;99.90;;;;;;5042585;28;20256;-80
2021/04/29 00:52:52;;;;;;;15.03;9.67;;;10.30;99.90;;;;;;5041122;28;20206;-77
2021/04/29 00:55:19;;;;;;;11.53;8.10;;;10.30;99.90;;;;;;5041641;28;20201;-79
2021/04/29 00:57:46;;;;;;;16.83;8.83;;;10.20;99.90;;;;;;5041519;28;20220;-78
2021/04/29 01:00:13;;;;;;;14.10;8.27;;;10.20;99.90;;;;;;5041460;28;20234;-79
2021/04/29 01:02:45;;;;;;;11.60;8.43;;;10.20;99.90;;;;;;5042039;28;20205;-78
2021/04/29 01:05:14;;;;;;;12.07;8.80;;;10.30;99.90;;;;;;5042009;28;20198;-79
2021/04/29 01:07:43;;;;;;;13.00;8.90;;;10.20;99.90;;;;;;5041379;28;20651;-77
2021/04/29 01:10:13;;;;;;;15.53;9.03;;;10.20;99.90;;;;;;5043990;28;20205;-78
2021/04/29 01:12:46;;;;;;;17.03;9.63;;;10.20;99.90;;;;;;5044678;28;20198;-78
2021/04/29 01:15:14;;;;;;;14.37;9.17;;;10.20;99.90;;;;;;5044571;28;20217;-82
2021/04/29 01:17:44;;;;;;;16.43;9.63;;;10.10;99.90;;;;;;5044496;28;20209;-81
2021/04/29 01:20:16;;;;;;;16.07;11.33;;;10.10;99.90;;;;;;5046432;28;20332;-80
2021/04/29 01:22:51;;;;;;;15.47;11.13;;;9.90;99.90;;;;;;5049324;28;20276;-85
2021/04/29 01:25:21;;;;;;;14.73;10.20;;;9.90;99.90;;;;;;5050273;28;20212;-82
2021/04/29 01:27:48;;;;;;;14.33;9.93;;;9.80;99.90;;;;;;5049869;28;20216;-86
2021/04/29 01:30:15;;;;;;;14.70;9.53;;;9.70;99.90;;;;;;5049674;28;20201;-89
2021/04/29 01:32:44;;;;;;;13.87;10.30;;;9.70;99.90;;;;;;5050732;28;20202;-82
2021/04/29 01:35:12;;;;;;;16.00;10.93;;;9.60;99.90;;;;;;5049875;28;20597;-88
2021/04/29 01:37:39;;;;;;;19.17;10.83;;;9.60;99.90;;;;;;5050829;28;20194;-86
2021/04/29 01:40:08;;;;;;;13.67;10.70;;;9.40;99.90;;;;;;5051682;28;20234;-80
2021/04/29 01:42:36;;;;;;;16.70;10.07;;;9.40;99.90;;;;;;5053455;28;20407;-78
2021/04/29 01:45:05;;;;;;;20.27;10.80;;;9.30;99.90;;;;;;5070483;28;20193;-78
2021/04/29 01:47:34;;;;;;;19.10;10.80;;;9.30;99.90;;;;;;5069815;28;20205;-80
2021/04/29 01:50:01;;;;;;;18.77;11.00;;;9.30;99.90;;;;;;5070106;28;20201;-86
2021/04/29 01:52:27;;;;;;;16.77;10.80;;;9.30;99.90;;;;;;5069884;28;20197;-85
2021/04/29 01:54:54;;;;;;;16.57;11.40;;;9.30;99.90;;;;;;5069059;28;20201;-80
2021/04/29 01:57:21;;;;;;;18.00;11.27;;;9.20;99.90;;;;;;5052043;28;20228;-85
2021/04/29 01:59:47;;;;;;;21.40;11.47;;;9.20;99.90;;;;;;5048980;28;20626;-85
2021/04/29 02:02:15;;;;;;;15.37;10.27;;;9.20;99.90;;;;;;5049030;28;20210;-84
2021/04/29 02:04:41;;;;;;;14.93;10.70;;;9.20;99.90;;;;;;5049126;28;20202;-78
2021/04/29 02:07:07;;;;;;;26.50;13.07;;;9.20;99.90;;;;;;5046919;28;20206;-78
2021/04/29 02:09:33;;;;;;;20.37;11.60;;;9.20;99.90;;;;;;5045594;28;20213;-85
2021/04/29 02:12:01;;;;;;;17.47;11.00;;;9.20;99.90;;;;;;5046719;28;20206;-83
2021/04/29 02:14:32;;;;;;;18.47;10.97;;;9.20;99.90;;;;;;5046174;28;20451;-84
2021/04/29 02:17:02;;;;;;;19.27;11.30;;;9.20;99.90;;;;;;5046458;28;20285;-82
2021/04/29 02:19:31;;;;;;;17.57;11.17;;;9.20;99.90;;;;;;5047010;28;20673;-82
2021/04/29 02:21:58;;;;;;;18.03;11.70;;;9.20;99.90;;;;;;5046932;28;20331;-83
2021/04/29 02:24:25;;;;;;;19.07;10.90;;;9.20;99.90;;;;;;5048012;28;20264;-86
2021/04/29 02:26:53;;;;;;;19.00;11.40;;;9.20;99.90;;;;;;5049225;28;20210;-78
2021/04/29 02:29:20;;;;;;;21.37;11.30;;;9.20;99.90;;;;;;5047327;28;20249;-83
2021/04/29 02:31:47;;;;;;;17.10;11.10;;;9.20;99.90;;;;;;5046593;28;20213;-84
2021/04/29 02:34:14;;;;;;;22.30;11.20;;;9.10;99.90;;;;;;5047693;28;20787;-83
2021/04/29 02:36:42;;;;;;;16.00;10.87;;;9.20;99.90;;;;;;5046650;28;20210;-79
2021/04/29 02:39:08;;;;;;;16.80;10.63;;;9.20;99.90;;;;;;5050562;28;20293;-86
2021/04/29 02:41:35;;;;;;;16.53;11.40;;;9.20;99.90;;;;;;5067929;28;20274;-82
2021/04/29 02:44:03;;;;;;;18.33;11.23;;;9.20;99.90;;;;;;5068368;28;20202;-82
2021/04/29 02:46:30;;;;;;;21.03;11.33;;;9.10;99.90;;;;;;5067543;28;20585;-81
2021/04/29 02:48:56;;;;;;;19.20;11.97;;;9.10;99.90;;;;;;5067006;28;20213;-81
2021/04/29 02:51:23;;;;;;;21.03;11.10;;;9.10;99.90;;;;;;5067594;28;20196;-86
2021/04/29 02:53:50;;;;;;;26.07;10.80;;;9.10;99.90;;;;;;5070544;28;20527;-80
2021/04/29 02:56:17;;;;;;;19.90;11.33;;;9.10;99.90;;;;;;5070814;28;20205;-85
2021/04/29 02:58:45;;;;;;;20.30;11.40;;;9.10;99.90;;;;;;5067784;28;20225;-86
2021/04/29 03:01:12;;;;;;;16.70;10.67;;;9.10;99.90;;;;;;5049362;28;20226;-84
2021/04/29 03:03:39;;;;;;;18.57;11.77;;;9.10;99.90;;;;;;5047713;28;20225;-81
2021/04/29 03:06:06;;;;;;;19.00;11.67;;;9.10;99.90;;;;;;5047837;28;20460;-79
2021/04/29 03:08:32;;;;;;;24.50;12.13;;;9.00;99.90;;;;;;5048351;28;20202;-81
2021/04/29 03:10:59;;;;;;;17.17;11.07;;;9.10;99.90;;;;;;5047262;28;20198;-79
2021/04/29 03:13:26;;;;;;;21.80;11.73;;;9.00;99.90;;;;;;5064840;28;20217;-83
2021/04/29 03:15:52;;;;;;;17.73;12.23;;;9.10;99.90;;;;;;5066211;28;20200;-79
2021/04/29 03:18:18;;;;;;;19.90;12.73;;;9.00;99.90;;;;;;5047001;28;20214;-83
2021/04/29 03:20:45;;;;;;;16.93;11.87;;;9.10;99.90;;;;;;5047897;28;20608;-84
2021/04/29 03:23:11;;;;;;;21.73;11.33;;;9.00;99.90;;;;;;5059522;28;20220;-84
2021/04/29 03:25:37;;;;;;;19.60;12.33;;;9.00;99.90;;;;;;5067769;28;20197;-83
2021/04/29 03:28:05;;;;;;;21.97;12.33;;;9.00;99.90;;;;;;5054510;28;20382;-82
2021/04/29 03:30:31;;;;;;;23.20;11.80;;;9.00;99.90;;;;;;5047806;28;20582;-79
2021/04/29 03:32:58;;;;;;;19.13;12.70;;;9.00;99.90;;;;;;5047834;28;20255;-80
2021/04/29 03:35:24;;;;;;;19.43;11.10;;;9.00;99.90;;;;;;5047239;28;20556;-82
2021/04/29 03:37:50;;;;;;;18.37;11.83;;;9.00;99.90;;;;;;5048362;28;20209;-78
2021/04/29 03:40:16;;;;;;;19.27;11.77;;;9.00;99.90;;;;;;5046938;28;20222;-84
2021/04/29 03:42:43;;;;;;;22.60;12.77;;;8.90;99.90;;;;;;5047415;28;20605;-83
2021/04/29 03:45:11;;;;;;;17.73;11.63;;;8.90;99.90;;;;;;5046957;28;20218;-85
2021/04/29 03:47:38;;;;;;;20.13;11.83;;;8.90;99.90;;;;;;5046452;28;20202;-81
2021/04/29 03:50:05;;;;;;;19.47;11.77;;;8.90;99.90;;;;;;5044959;28;20463;-82
2021/04/29 03:52:32;;;;;;;18.40;11.67;;;8.90;99.90;;;;;;5044425;28;20450;-80
2021/04/29 03:54:58;;;;;;;20.13;12.13;;;8.90;99.90;;;;;;5046785;28;20210;-85
2021/04/29 03:57:25;;;;;;;14.97;11.47;;;8.90;99.90;;;;;;5048338;28;20213;-83
2021/04/29 03:59:51;;;;;;;17.47;12.33;;;8.90;99.90;;;;;;5048203;28;20229;-79
2021/04/29 04:02:18;;;;;;;24.63;12.93;;;8.90;99.90;;;;;;5047532;28;20221;-85
2021/04/29 04:04:44;;;;;;;19.60;11.43;;;8.90;99.90;;;;;;5048264;28;20198;-82
2021/04/29 04:07:11;;;;;;;20.27;12.70;;;8.90;99.90;;;;;;5047702;28;20239;-84
2021/04/29 04:09:37;;;;;;;17.57;12.13;;;8.90;99.90;;;;;;5049404;28;20209;-85
2021/04/29 04:12:04;;;;;;;20.63;12.63;;;8.80;99.90;;;;;;5046532;28;20498;-84
2021/04/29 04:14:30;;;;;;;19.00;12.40;;;8.80;99.90;;;;;;5049620;28;20201;-85
2021/04/29 04:16:56;;;;;;;18.53;12.03;;;8.80;99.90;;;;;;5048341;28;20663;-84
2021/04/29 04:19:24;;;;;;;14.37;11.37;;;8.80;99.90;;;;;;5048539;28;20205;-83
2021/04/29 04:21:50;;;;;;;17.43;12.30;;;8.80;99.90;;;;;;5049191;28;21001;-85
2021/04/29 04:24:16;;;;;;;22.03;12.83;;;8.80;99.90;;;;;;5048844;28;20614;-80
2021/04/29 04:26:43;;;;;;;21.13;13.50;;;8.80;99.90;;;;;;5047591;28;20202;-78
2021/04/29 04:29:09;;;;;;;21.17;12.37;;;8.90;99.90;;;;;;5049665;28;20808;-85
2021/04/29 04:31:36;;;;;;;20.20;13.33;;;8.80;99.90;;;;;;5048614;28;20217;-85
2021/04/29 04:34:03;;;;;;;16.30;11.83;;;8.80;99.90;;;;;;5047534;28;20559;-84
2021/04/29 04:36:30;;;;;;;18.87;12.40;;;8.70;99.90;;;;;;5048836;28;20194;-84
2021/04/29 04:38:56;;;;;;;18.30;11.80;;;8.70;99.90;;;;;;5047486;28;20213;-85
2021/04/29 04:41:22;;;;;;;18.33;11.83;;;8.60;99.90;;;;;;5047090;28;20599;-77
2021/04/29 04:43:48;;;;;;;23.57;12.07;;;8.60;99.90;;;;;;5046893;28;20506;-81
2021/04/29 04:46:15;;;;;;;18.93;11.67;;;8.70;99.90;;;;;;5048206;28;20904;-79
2021/04/29 04:48:43;;;;;;;21.40;12.90;;;8.70;99.90;;;;;;5048782;28;20197;-76
2021/04/29 04:51:09;;;;;;;20.50;11.63;;;8.60;99.90;;;;;;5047070;28;20200;-84
2021/04/29 04:53:36;;;;;;;18.67;12.33;;;8.60;99.90;;;;;;5047066;28;20288;-83
2021/04/29 04:56:03;;;;;;;18.17;12.37;;;8.60;99.90;;;;;;5050632;28;20202;-84
2021/04/29 04:58:29;;;;;;;23.37;11.87;;;8.60;99.90;;;;;;5065154;28;20201;-81
2021/04/29 05:00:55;;;;;;;18.10;12.77;;;8.60;99.90;;;;;;5064973;28;20714;-82
2021/04/29 05:03:22;;;;;;;22.80;12.70;;;8.60;99.90;;;;;;5065697;28;20656;-81
2021/04/29 05:05:48;;;;;;;25.37;13.87;;;8.60;99.90;;;;;;5052654;28;20281;-81
2021/04/29 05:08:15;;;;;;;20.27;13.03;;;8.50;99.90;;;;;;5044768;28;20264;-80
2021/04/29 05:10:42;;;;;;;25.83;12.47;;;8.50;99.90;;;;;;5045262;28;20198;-80
2021/04/29 05:13:10;;;;;;;24.93;14.03;;;8.40;99.90;;;;;;5045887;28;20553;-76
2021/04/29 05:15:37;;;;;;;22.17;13.50;;;8.30;99.90;;;;;;5064671;28;20588;-76
2021/04/29 05:18:03;;;;;;;22.00;14.13;;;8.30;99.90;;;;;;5063807;28;20963;-82
2021/04/29 05:20:31;;;;;;;22.47;13.87;;;8.30;99.90;;;;;;5063508;28;20217;-81
2021/04/29 05:22:57;;;;;;;25.23;14.67;;;8.30;99.90;;;;;;5063566;28;20288;-77
2021/04/29 05:25:24;;;;;;;26.97;15.00;;;8.40;99.90;;;;;;5055790;28;20210;-81
2021/04/29 05:27:53;;;;;;;28.43;14.70;;;8.40;99.90;;;;;;5045735;28;20194;-81
2021/04/29 05:30:20;;;;;;;31.93;15.80;;;8.30;99.90;;;;;;5045769;28;20205;-81
2021/04/29 05:32:47;;;;;;;24.20;14.63;;;8.30;99.90;;;;;;5045276;28;20514;-83
2021/04/29 05:35:14;;;;;;;29.97;14.63;;;8.30;99.90;;;;;;5044710;28;20236;-80
2021/04/29 05:37:40;;;;;;;27.33;14.97;;;8.30;99.90;;;;;;5056724;28;20209;-81
2021/04/29 05:40:08;;;;;;;25.33;15.20;;;8.20;99.90;;;;;;5064743;28;21006;-75
2021/04/29 05:42:35;;;;;;;27.77;16.17;;;8.20;99.90;;;;;;5064004;28;20209;-77
2021/04/29 05:45:03;;;;;;;23.77;14.60;;;8.20;99.90;;;;;;5048043;28;20260;-77
2021/04/29 05:47:29;;;;;;;26.60;15.67;;;8.20;99.90;;;;;;5043137;28;20206;-80
2021/04/29 05:49:55;;;;;;;25.80;14.93;;;8.20;99.90;;;;;;5043193;28;20204;-79
2021/04/29 05:52:22;;;;;;;24.50;15.50;;;8.20;99.90;;;;;;5043014;28;20206;-78
2021/04/29 05:54:48;;;;;;;28.80;14.63;;;8.10;99.90;;;;;;5042648;28;20270;-81
2021/04/29 05:57:15;;;;;;;21.90;14.63;;;8.00;99.90;;;;;;5043592;28;20954;-77
2021/04/29 05:59:41;;;;;;;24.07;14.30;;;8.10;99.90;;;;;;5024962;28;20312;-78
2021/04/29 06:02:08;;;;;;;25.90;14.30;;;8.10;99.90;;;;;;5042466;28;20267;-77
2021/04/29 06:04:35;;;;;;;18.80;13.60;;;8.00;99.90;;;;;;5044219;28;20256;-77
2021/04/29 06:07:01;;;;;;;21.80;13.73;;;8.00;99.90;;;;;;5046972;28;20213;-79
2021/04/29 06:09:27;;;;;;;23.43;13.97;;;8.00;99.90;;;;;;5045794;28;20202;-81
2021/04/29 06:11:53;;;;;;;23.50;14.63;;;8.00;99.90;;;;;;5046503;28;20201;-81
2021/04/29 06:14:20;;;;;;;21.17;15.03;;;8.00;99.90;;;;;;5046048;28;20212;-79
2021/04/29 06:16:46;;;;;;;20.50;13.80;;;8.00;99.90;;;;;;5046269;28;20276;-79
2021/04/29 06:19:13;;;;;;;21.13;14.27;;;8.00;99.90;;;;;;5046132;28;20206;-80
2021/04/29 06:21:39;;;;;;;18.23;13.43;;;8.00;99.90;;;;;;5045723;28;20241;-80
2021/04/29 06:24:06;;;;;;;20.83;14.53;;;8.00;99.90;;;;;;5045923;28;20221;-77
2021/04/29 06:26:33;;;;;;;20.90;14.37;;;8.00;99.90;;;;;;5046106;28;20503;-77
2021/04/29 06:28:59;;;;;;;20.37;14.60;;;8.00;99.90;;;;;;5046514;28;20245;-80
2021/04/29 06:31:25;;;;;;;18.37;14.40;;;8.00;99.90;;;;;;5045848;28;20305;-82
2021/04/29 06:33:51;;;;;;;22.00;15.30;;;8.00;99.90;;;;;;5047022;28;20206;-79
2021/04/29 06:36:19;;;;;;;22.00;14.10;;;7.90;99.90;;;;;;5045621;28;20615;-80
2021/04/29 06:38:45;;;;;;;21.87;15.13;;;7.90;99.90;;;;;;5046748;28;20205;-79
2021/04/29 06:41:11;;;;;;;20.77;14.60;;;7.90;99.90;;;;;;5047327;28;20230;-81
2021/04/29 06:43:38;;;;;;;20.27;15.07;;;7.90;99.90;;;;;;5047685;28;20625;-83
2021/04/29 06:46:04;;;;;;;20.87;16.10;;;7.80;99.90;;;;;;5047685;28;20194;-82
2021/04/29 06:48:30;;;;;;;21.20;15.80;;;7.80;99.90;;;;;;5048585;28;20202;-81
2021/04/29 06:50:57;;;;;;;23.03;15.73;;;7.80;99.90;;;;;;5047756;28;20198;-79
2021/04/29 06:53:24;;;;;;;20.80;15.93;;;7.90;99.90;;;;;;5046891;28;20206;-82
2021/04/29 06:55:51;;;;;;;21.70;15.90;;;7.80;99.90;;;;;;5062670;28;20254;-79
2021/04/29 06:58:17;;;;;;;20.57;14.60;;;7.70;99.90;;;;;;5066363;28;20255;-78
2021/04/29 07:00:43;;;;;;;18.57;14.57;;;7.70;99.90;;;;;;5068076;28;20220;-79
2021/04/29 07:03:10;;;;;;;19.37;14.67;;;7.70;99.90;;;;;;5049583;28;20209;-82
2021/04/29 07:05:36;;;;;;;19.87;14.07;;;7.70;99.90;;;;;;5051244;28;20206;-82
2021/04/29 07:08:03;;;;;;;23.00;14.90;;;7.70;99.90;;;;;;5060120;28;20259;-78
2021/04/29 07:10:30;;;;;;;16.87;13.80;;;7.60;99.90;;;;;;5050712;28;20204;-80
2021/04/29 07:19:49;;;;;;;19.33;13.73;;;7.60;99.90;;;;;;4937851;28;21031;-80
2021/04/29 07:22:15;;;;;;;20.83;13.33;;;7.60;99.90;;;;;;5036643;28;20205;-78
2021/04/29 07:24:43;;;;;;;17.53;13.90;;;7.60;99.90;;;;;;5042369;28;20520;-81
2021/04/29 07:27:11;;;;;;;18.97;13.50;;;7.60;99.90;;;;;;5027521;28;20253;-80
2021/04/29 07:29:37;;;;;;;21.10;13.63;;;7.60;99.90;;;;;;5021762;28;20245;-79
2021/04/29 07:32:04;;;;;;;24.47;15.30;;;7.60;99.90;;;;;;5022473;28;20315;-80
2021/04/29 07:34:30;;;;;;;17.33;14.37;;;7.60;99.90;;;;;;5022083;28;20919;-78
2021/04/29 07:36:59;;;;;;;16.17;13.17;;;7.50;99.90;;;;;;5017414;28;20206;-81
2021/04/29 07:39:26;;;;;;;18.77;14.53;;;7.50;99.90;;;;;;5022334;28;20214;-80
2021/04/29 07:41:52;;;;;;;17.83;14.83;;;7.50;99.90;;;;;;5023359;28;20241;-81
2021/04/29 07:44:20;;;;;;;18.33;14.43;;;7.50;99.90;;;;;;5022727;28;20328;-84
2021/04/29 07:46:46;;;;;;;20.37;14.43;;;7.50;99.90;;;;;;5022531;28;20276;-80
2021/04/29 07:49:12;;;;;;;18.97;15.10;;;7.50;99.90;;;;;;5020960;28;20218;-80
2021/04/29 07:51:39;;;;;;;21.13;15.73;;;7.50;99.90;;;;;;5021861;28;20535;-80
2021/04/29 07:54:06;;;;;;;19.97;14.63;;;7.50;99.90;;;;;;5021606;28;20816;-79
2021/04/29 07:56:34;;;;;;;22.67;14.97;;;7.50;99.90;;;;;;5021631;28;20310;-80
2021/04/29 07:59:00;;;;;;;23.63;15.57;;;7.50;99.90;;;;;;5021583;28;20592;-82
2021/04/29 08:01:28;;;;;;;22.60;14.90;;;7.50;99.90;;;;;;5022138;28;20227;-82
2021/04/29 08:03:54;;;;;;;17.77;15.43;;;7.60;99.90;;;;;;5021991;28;20205;-81
2021/04/29 08:06:20;;;;;;;22.20;16.07;;;7.60;99.90;;;;;;5021888;28;20211;-82
2021/04/29 08:08:47;;;;;;;23.17;16.07;;;7.60;99.90;;;;;;5035005;28;20611;-78
2021/04/29 08:11:15;;;;;;;23.57;15.83;;;7.60;99.90;;;;;;5034522;28;20218;-81
2021/04/29 08:13:42;;;;;;;21.00;15.90;;;7.70;99.90;;;;;;5035068;28;20873;-80
2021/04/29 08:16:09;;;;;;;25.63;16.23;;;7.60;99.90;;;;;;5044656;28;20220;-80
2021/04/29 08:18:36;;;;;;;24.20;16.40;;;7.60;99.90;;;;;;5045204;28;20206;-82
2021/04/29 08:21:03;;;;;;;21.67;16.07;;;7.60;99.90;;;;;;5045216;28;20221;-82
2021/04/29 08:23:30;;;;;;;23.60;16.73;;;7.60;99.90;;;;;;5044491;28;20226;-80
2021/04/29 08:25:56;;;;;;;23.57;17.63;;;7.60;99.90;;;;;;5044257;28;20213;-81
2021/04/29 08:28:23;;;;;;;24.63;15.63;;;7.60;99.90;;;;;;5043599;28;20260;-81
2021/04/29 08:30:49;;;;;;;26.03;17.07;;;7.60;99.90;;;;;;5043206;28;20595;-79
2021/04/29 08:33:16;;;;;;;20.50;15.17;;;7.70;99.90;;;;;;5044525;28;20204;-79
2021/04/29 08:35:43;;;;;;;21.70;16.23;;;7.70;99.90;;;;;;5044201;28;20202;-80
2021/04/29 08:38:09;;;;;;;20.40;14.77;;;7.70;99.90;;;;;;5043743;28;20260;-80
2021/04/29 08:40:36;;;;;;;20.83;14.80;;;7.60;99.90;;;;;;5042702;28;20684;-79
2021/04/29 08:43:02;;;;;;;20.57;15.23;;;7.60;99.90;;;;;;5043713;28;20194;-80
2021/04/29 08:45:28;;;;;;;21.07;14.43;;;7.60;99.90;;;;;;5043780;28;20202;-80
2021/04/29 08:47:56;;;;;;;19.30;14.47;;;7.60;99.90;;;;;;5044274;28;20202;-78
2021/04/29 08:50:24;;;;;;;20.90;14.03;;;7.60;99.90;;;;;;5043674;28;20198;-81
2021/04/29 08:52:52;;;;;;;18.03;15.03;;;7.60;99.90;;;;;;5043998;28;20239;-81
2021/04/29 08:55:20;;;;;;;15.50;13.50;;;7.60;99.90;;;;;;5043450;28;20866;-80
2021/04/29 08:57:47;;;;;;;24.40;13.97;;;7.60;99.90;;;;;;5043117;28;20194;-78
2021/04/29 09:00:15;;;;;;;21.17;14.70;;;7.60;99.90;;;;;;5044282;28;20613;-79
2021/04/29 09:02:42;;;;;;;19.03;14.13;;;7.60;99.90;;;;;;5044384;28;20212;-82
2021/04/29 09:05:10;;;;;;;17.83;13.30;;;7.70;99.90;;;;;;5044661;28;20216;-79
2021/04/29 09:07:36;;;;;;;23.73;14.60;;;7.70;99.90;;;;;;5045527;28;20582;-83
2021/04/29 09:10:05;;;;;;;19.73;14.90;;;7.70;99.90;;;;;;5044808;28;20198;-81
2021/04/29 09:12:37;;;;;;;20.47;14.90;;;7.60;99.90;;;;;;5043706;28;20225;-83
2021/04/29 09:15:05;;;;;;;22.40;14.47;;;7.60;99.90;;;;;;5044586;28;20198;-78
2021/04/29 09:17:32;;;;;;;15.63;13.63;;;7.60;99.90;;;;;;5047651;28;20213;-82
2021/04/29 09:19:58;;;;;;;18.97;14.37;;;7.60;99.90;;;;;;5046882;28;20233;-79
2021/04/29 09:22:24;;;;;;;17.97;14.57;;;7.60;99.90;;;;;;5046123;28;20213;-80
2021/04/29 09:24:51;;;;;;;20.13;14.57;;;7.60;99.90;;;;;;5046169;28;20301;-80
2021/04/29 09:27:19;;;;;;;21.27;14.33;;;7.70;99.90;;;;;;5044593;28;20228;-82
2021/04/29 09:29:50;;;;;;;18.53;13.03;;;7.70;99.90;;;;;;5045289;28;20226;-82
2021/04/29 09:32:27;;;;;;;18.23;13.90;;;7.70;99.90;;;;;;5043581;28;20665;-80
2021/04/29 09:34:53;;;;;;;18.77;12.93;;;7.70;99.90;;;;;;5043744;28;20562;-78
2021/04/29 09:37:30;;;;;;;18.90;13.03;;;7.70;99.90;;;;;;5044030;28;20205;-80
2021/04/29 09:39:57;;;;;;;22.37;14.07;;;7.70;99.90;;;;;;5045371;28;20209;-78
2021/04/29 09:42:33;;;;;;;20.80;13.67;;;7.70;99.90;;;;;;5045200;28;20194;-78
2021/04/29 09:45:03;;;;;;;18.37;14.07;;;7.70;99.90;;;;;;5048232;28;20215;-79
2021/04/29 09:47:30;;;;;;;22.30;13.57;;;7.80;99.90;;;;;;5046611;28;20747;-83
2021/04/29 09:49:56;;;;;;;22.40;14.40;;;7.70;99.90;;;;;;5047002;28;20210;-78
2021/04/29 09:52:25;;;;;;;18.90;13.17;;;7.70;99.90;;;;;;5046844;28;20197;-79
2021/04/29 09:54:52;;;;;;;19.17;13.33;;;7.80;99.90;;;;;;5047036;28;20214;-77
2021/04/29 09:57:24;;;;;;;23.50;13.17;;;7.70;99.90;;;;;;5046575;28;20664;-78
2021/04/29 09:59:56;;;;;;;24.67;14.43;;;7.80;99.90;;;;;;5046989;28;20336;-79
2021/04/29 10:02:22;;;;;;;25.17;13.40;;;7.90;99.90;;;;;;5045842;28;20233;-78
2021/04/29 10:04:51;;;;;;;23.17;12.90;;;7.90;99.90;;;;;;5046418;28;20198;-81
2021/04/29 10:07:19;;;;;;;20.37;13.47;;;7.90;99.90;;;;;;5045089;28;20202;-79
2021/04/29 10:09:45;;;;;;;22.23;13.27;;;7.80;99.90;;;;;;5045707;28;20206;-79
2021/04/29 10:12:14;;;;;;;19.97;13.17;;;7.80;99.90;;;;;;5047021;28;20677;-79
2021/04/29 10:14:42;;;;;;;19.67;12.43;;;7.80;99.90;;;;;;5045956;28;20247;-79
2021/04/29 10:17:13;;;;;;;16.63;12.20;;;7.80;99.90;;;;;;5046292;28;20213;-80
2021/04/29 10:19:42;;;;;;;17.77;12.40;;;7.80;99.90;;;;;;5046030;28;20208;-79
2021/04/29 10:22:09;;;;;;;15.40;11.03;;;7.70;99.90;;;;;;5050281;28;20274;-80
2021/04/29 10:24:36;;;;;;;14.77;12.13;;;7.70;99.90;;;;;;5066122;28;20201;-78
2021/04/29 10:27:04;;;;;;;17.03;12.67;;;7.70;99.90;;;;;;5066770;28;20205;-77
2021/04/29 10:29:31;;;;;;;15.77;11.57;;;7.70;99.90;;;;;;5056740;28;20237;-81
2021/04/29 10:31:58;;;;;;;17.97;12.03;;;7.60;99.90;;;;;;5046403;28;20205;-81
2021/04/29 10:34:37;;;;;;;18.47;13.03;;;7.60;99.90;;;;;;5046446;28;20206;-80
2021/04/29 10:37:15;;;;;;;17.13;12.63;;;7.60;99.90;;;;;;5046619;28;20212;-79
2021/04/29 10:39:51;;;;;;;19.43;11.83;;;7.60;99.90;;;;;;5046762;28;20216;-80
2021/04/29 10:42:19;;;;;;;14.63;11.77;;;7.60;99.90;;;;;;5046564;28;20214;-78
2021/04/29 10:44:47;;;;;;;16.17;11.83;;;7.60;99.90;;;;;;5046665;28;20206;-82
2021/04/29 10:47:23;;;;;;;15.53;11.00;;;7.60;99.90;;;;;;5046821;28;20626;-80
2021/04/29 10:49:51;;;;;;;18.70;11.77;;;7.60;99.90;;;;;;5045633;28;20562;-80
2021/04/29 10:52:18;;;;;;;15.10;10.93;;;7.60;99.90;;;;;;5044990;28;20194;-82
2021/04/29 10:54:51;;;;;;;16.33;11.43;;;7.60;99.90;;;;;;5046422;28;20209;-82
2021/04/29 10:57:19;;;;;;;16.30;10.40;;;7.70;99.90;;;;;;5045689;28;20602;-78
2021/04/29 10:59:50;;;;;;;17.67;11.03;;;7.70;99.90;;;;;;5046109;28;20734;-78
2021/04/29 11:02:27;;;;;;;16.27;10.07;;;7.70;99.90;;;;;;5045545;28;20695;-79
2021/04/29 11:04:55;;;;;;;18.80;9.77;;;7.70;99.90;;;;;;5046242;28;20213;-80
2021/04/29 11:07:23;;;;;;;15.40;10.27;;;7.70;99.90;;;;;;5045820;28;20201;-81
2021/04/29 11:10:05;;;;;;;18.07;10.57;;;7.70;99.90;;;;;;5046206;28;20201;-79
2021/04/29 11:12:46;;;;;;;19.77;10.23;;;7.80;99.90;;;;;;5044978;28;20220;-79
2021/04/29 11:15:22;;;;;;;21.43;11.03;;;7.80;99.90;;;;;;5046408;28;20495;-80
2021/04/29 11:18:00;;;;;;;14.50;10.20;;;7.80;99.90;;;;;;5046856;28;20289;-85
2021/04/29 11:20:28;;;;;;;16.53;10.30;;;7.80;99.90;;;;;;5046818;28;20206;-80
2021/04/29 11:22:56;;;;;;;17.23;11.07;;;7.70;99.90;;;;;;5047295;28;20209;-79
2021/04/29 11:25:23;;;;;;;17.43;10.80;;;7.70;99.90;;;;;;5046293;28;21097;-81
2021/04/29 11:27:55;;;;;;;15.60;10.13;;;7.70;99.90;;;;;;5047043;28;20202;-79
2021/04/29 11:30:22;;;;;;;18.50;9.83;;;7.80;99.90;;;;;;5048131;28;20337;-83
2021/04/29 11:32:56;;;;;;;12.97;9.93;;;7.80;99.90;;;;;;5046790;28;20209;-80
2021/04/29 11:35:25;;;;;;;14.70;9.10;;;7.80;99.90;;;;;;5050762;28;20200;-78
2021/04/29 11:37:53;;;;;;;15.03;8.73;;;7.80;99.90;;;;;;5069377;28;20205;-79
2021/04/29 11:40:21;;;;;;;11.80;8.87;;;7.80;99.90;;;;;;5058612;28;20348;-80
2021/04/29 11:42:52;;;;;;;15.37;9.30;;;7.80;99.90;;;;;;5054585;28;20225;-81
2021/04/29 11:45:20;;;;;;;15.23;9.40;;;7.80;99.90;;;;;;5063132;28;20202;-82
2021/04/29 11:47:59;;;;;;;13.60;8.63;;;7.70;99.90;;;;;;5059461;28;20268;-85
2021/04/29 11:50:27;;;;;;;14.77;9.40;;;7.70;99.90;;;;;;5052405;28;20182;-82
2021/04/29 11:53:10;;;;;;;12.37;9.10;;;7.70;99.90;;;;;;5051962;28;20902;-81
2021/04/29 11:55:38;;;;;;;14.00;8.70;;;7.60;99.90;;;;;;5047251;28;20217;-82
2021/04/29 11:58:06;;;;;;;11.40;8.43;;;7.70;99.90;;;;;;5047208;28;20916;-81
2021/04/29 12:00:34;;;;;;;13.63;8.40;;;7.60;99.90;;;;;;5045839;28;20229;-81
2021/04/29 12:03:02;;;;;;;12.23;8.40;;;7.60;99.90;;;;;;5047057;28;20213;-82
2021/04/29 12:05:36;;;;;;;15.60;8.67;;;7.70;99.90;;;;;;5047148;28;20605;-81
2021/04/29 12:08:08;;;;;;;14.53;8.73;;;7.60;99.90;;;;;;5066222;28;20227;-82
2021/04/29 12:10:48;;;;;;;14.20;8.37;;;7.60;99.90;;;;;;5066029;28;20280;-79
2021/04/29 12:13:16;;;;;;;17.37;8.43;;;7.60;99.90;;;;;;5065657;28;20194;-82
2021/04/29 12:15:43;;;;;;;14.90;8.57;;;7.70;99.90;;;;;;5063635;28;20291;-81
2021/04/29 12:18:11;;;;;;;18.37;9.43;;;7.60;99.90;;;;;;5066423;28;20531;-80
2021/04/29 12:20:38;;;;;;;13.07;8.57;;;7.60;99.90;;;;;;5065399;28;20221;-80
2021/04/29 12:23:07;;;;;;;11.23;8.37;;;7.60;99.90;;;;;;5065312;28;20205;-82
2021/04/29 12:25:34;;;;;;;11.77;9.90;;;7.50;99.90;;;;;;5066415;28;20239;-79
2021/04/29 12:28:11;;;;;;;15.53;8.37;;;7.50;99.90;;;;;;5053783;28;20653;-80
2021/04/29 12:30:37;;;;;;;14.90;8.57;;;7.50;99.90;;;;;;5046529;28;20198;-80
2021/04/29 12:33:14;;;;;;;11.87;7.80;;;7.40;99.90;;;;;;5046283;28;20374;-80
2021/04/29 12:35:40;;;;;;;13.23;8.27;;;7.50;99.90;;;;;;5045833;28;20197;-81
2021/04/29 12:38:07;;;;;;;15.53;8.93;;;7.50;99.90;;;;;;5065015;28;20224;-78
2021/04/29 12:40:36;;;;;;;13.63;8.80;;;7.50;99.90;;;;;;5060949;28;20202;-81
2021/04/29 12:43:15;;;;;;;12.63;8.97;;;7.50;99.90;;;;;;5046909;28;20198;-83
2021/04/29 12:45:50;;;;;;;15.73;9.20;;;7.60;99.90;;;;;;5047493;28;20190;-81
2021/04/29 12:48:28;;;;;;;14.07;8.10;;;7.60;99.90;;;;;;5045551;28;20308;-80